Time;durP1;ratioP1;P1;durP2;ratioP2;P2;SDS_P1;SDS_P2;PMS_P1;PMS_P2;Temp;Humidity;BMP_temperature;BMP_pressure;BME280_temperature;BME280_humidity;BME280_pressure;Samples;Min_cycle;Max_cycle;Signal;HPM_P1;HPM_P2
2021/05/08 00:02:45;;;;;;;1.37;1.23;;;17.90;34.30;;;;;;8394162;28;20527;-47
2021/05/08 00:06:45;;;;;;;1.97;1.40;;;17.90;34.20;;;;;;8392900;28;20031;-47
2021/05/08 00:10:46;;;;;;;3.30;1.30;;;17.90;34.20;;;;;;8396442;28;20060;-45
2021/05/08 00:14:47;;;;;;;2.23;1.23;;;17.90;34.20;;;;;;8393350;28;20287;-45
2021/05/08 00:18:47;;;;;;;1.57;1.20;;;17.90;34.30;;;;;;8393137;28;20059;-46
2021/05/08 00:22:48;;;;;;;1.20;1.10;;;17.90;34.80;;;;;;8366602;28;20048;-46
2021/05/08 00:26:48;;;;;;;1.57;1.40;;;17.90;34.30;;;;;;8397833;28;20383;-50
2021/05/08 00:30:49;;;;;;;1.60;1.30;;;17.90;34.20;;;;;;8392821;28;20037;-45
2021/05/08 00:34:49;;;;;;;2.07;1.10;;;17.80;34.20;;;;;;8391235;28;20032;-45
2021/05/08 00:38:50;;;;;;;1.40;1.10;;;17.80;34.20;;;;;;8392678;28;20496;-47
2021/05/08 00:42:50;;;;;;;2.37;1.40;;;17.90;34.30;;;;;;8392684;28;20049;-46
2021/05/08 00:46:52;;;;;;;3.63;1.30;;;17.80;34.20;;;;;;8395187;28;20035;-46
2021/05/08 00:50:54;;;;;;;1.80;1.20;;;17.80;34.20;;;;;;8392163;28;20040;-47
2021/05/08 00:54:54;;;;;;;1.67;1.25;;;17.80;34.20;;;;;;8392459;28;20537;-46
2021/05/08 00:58:55;;;;;;;1.43;1.17;;;17.80;34.20;;;;;;8390145;28;20029;-46
2021/05/08 01:02:56;;;;;;;1.60;1.20;;;17.80;34.20;;;;;;8396681;28;20044;-46
2021/05/08 01:06:56;;;;;;;1.33;1.10;;;17.80;34.20;;;;;;8391897;28;20044;-45
2021/05/08 01:10:57;;;;;;;2.53;1.50;;;17.80;34.20;;;;;;8390080;28;20354;-47
2021/05/08 01:14:58;;;;;;;2.30;1.40;;;17.80;34.30;;;;;;8391529;28;20113;-47
2021/05/08 01:18:59;;;;;;;1.90;1.50;;;17.80;34.20;;;;;;8396593;28;20037;-46
2021/05/08 01:22:59;;;;;;;1.60;1.30;;;17.80;34.20;;;;;;8389573;28;20052;-46
2021/05/08 01:27:00;;;;;;;1.23;1.13;;;17.70;34.30;;;;;;8391969;28;20403;-46
2021/05/08 01:31:01;;;;;;;1.40;1.20;;;17.70;34.30;;;;;;8391174;28;20033;-45
2021/05/08 01:35:01;;;;;;;1.60;1.30;;;17.70;34.20;;;;;;8389470;28;20103;-46
2021/05/08 01:39:04;;;;;;;1.63;1.23;;;17.70;34.30;;;;;;8395822;28;20501;-46
2021/05/08 01:43:05;;;;;;;2.13;1.40;;;17.70;34.30;;;;;;8391211;28;20048;-45
2021/05/08 01:47:05;;;;;;;1.80;1.40;;;17.70;34.30;;;;;;8389239;28;20056;-46
2021/05/08 01:51:06;;;;;;;1.30;1.20;;;17.70;34.30;;;;;;8390672;28;20458;-46
2021/05/08 01:55:10;;;;;;;2.77;1.20;;;17.70;34.30;;;;;;8395288;28;20127;-47
2021/05/08 01:59:14;;;;;;;1.38;1.20;;;17.70;34.30;;;;;;8388860;28;20040;-46
2021/05/08 02:03:15;;;;;;;2.00;1.45;;;17.70;34.30;;;;;;8390995;28;20054;-46
2021/05/08 02:07:16;;;;;;;3.08;1.25;;;17.70;34.40;;;;;;8391033;28;20033;-46
2021/05/08 02:11:16;;;;;;;1.77;1.30;;;17.70;34.30;;;;;;8387722;28;20029;-49
2021/05/08 02:15:19;;;;;;;1.43;1.30;;;17.70;34.30;;;;;;8395046;28;20346;-46
2021/05/08 02:19:19;;;;;;;1.65;1.30;;;17.60;34.20;;;;;;8390303;28;20116;-47
2021/05/08 02:23:20;;;;;;;1.60;1.20;;;17.60;34.30;;;;;;8380575;28;20517;-48
2021/05/08 02:27:20;;;;;;;3.83;1.70;;;17.60;34.20;;;;;;8373661;28;20035;-46
2021/05/08 02:31:21;;;;;;;1.30;1.00;;;17.60;34.30;;;;;;8396682;28;20037;-46
2021/05/08 02:35:23;;;;;;;2.70;1.30;;;17.60;34.30;;;;;;8396879;28;20453;-51
2021/05/08 02:39:23;;;;;;;2.53;1.30;;;17.60;34.30;;;;;;8396187;28;20032;-46
2021/05/08 02:43:24;;;;;;;1.47;1.10;;;17.60;34.30;;;;;;8394849;28;20388;-48
2021/05/08 02:47:25;;;;;;;1.47;1.33;;;17.60;34.30;;;;;;8400852;28;20558;-46
2021/05/08 02:51:26;;;;;;;1.33;1.20;;;17.60;34.30;;;;;;8396251;28;20040;-51
2021/05/08 02:55:27;;;;;;;1.67;1.30;;;17.60;34.30;;;;;;8394167;28;20124;-46
2021/05/08 02:59:27;;;;;;;2.30;1.30;;;17.60;34.30;;;;;;8395742;28;20497;-48
2021/05/08 03:03:28;;;;;;;1.40;1.00;;;17.50;34.30;;;;;;8395783;28;20041;-47
2021/05/08 03:07:29;;;;;;;1.60;1.23;;;17.60;34.30;;;;;;8398517;28;20519;-46
2021/05/08 03:11:29;;;;;;;1.30;1.03;;;17.50;34.20;;;;;;8395505;28;20029;-48
2021/05/08 03:15:30;;;;;;;2.50;1.20;;;17.50;34.30;;;;;;8395427;28;20404;-47
2021/05/08 03:19:30;;;;;;;1.23;1.13;;;17.50;34.30;;;;;;8394001;27;20076;-47
2021/05/08 03:23:31;;;;;;;1.90;1.17;;;17.50;34.30;;;;;;8399953;28;20028;-47
2021/05/08 03:27:31;;;;;;;2.03;1.40;;;17.50;34.30;;;;;;8393630;28;20037;-48
2021/05/08 03:31:32;;;;;;;1.80;1.40;;;17.50;34.30;;;;;;8393417;28;20056;-46
2021/05/08 03:35:32;;;;;;;1.37;1.17;;;17.50;34.30;;;;;;8394939;28;20064;-45
2021/05/08 03:39:33;;;;;;;1.17;0.93;;;17.50;34.30;;;;;;8397698;28;20454;-46
2021/05/08 03:43:34;;;;;;;1.17;0.97;;;17.50;34.30;;;;;;8393705;28;20028;-46
2021/05/08 03:47:34;;;;;;;1.80;1.00;;;17.50;34.30;;;;;;8394949;28;20028;-46
2021/05/08 03:51:35;;;;;;;1.10;1.00;;;17.50;34.30;;;;;;8394313;28;20044;-47
2021/05/08 03:55:37;;;;;;;2.00;1.37;;;17.50;34.30;;;;;;8392674;28;20190;-47
2021/05/08 03:59:38;;;;;;;1.42;1.10;;;17.50;34.30;;;;;;8398772;28;20158;-47
2021/05/08 04:03:39;;;;;;;1.60;1.40;;;17.40;34.20;;;;;;8394007;28;20037;-47
2021/05/08 04:07:39;;;;;;;1.00;1.00;;;17.40;34.50;;;;;;8392498;28;20131;-46
2021/05/08 04:11:40;;;;;;;1.97;1.37;;;17.50;34.30;;;;;;8394121;28;20052;-47
2021/05/08 04:15:41;;;;;;;1.63;1.20;;;17.40;34.20;;;;;;8397888;28;20025;-48
2021/05/08 04:19:42;;;;;;;1.50;1.05;;;17.40;34.20;;;;;;8391602;28;20115;-47
2021/05/08 04:23:42;;;;;;;1.70;1.20;;;17.40;34.20;;;;;;8393223;28;20043;-47
2021/05/08 04:27:43;;;;;;;1.73;1.60;;;17.40;34.20;;;;;;8393259;28;20024;-46
2021/05/08 04:31:43;;;;;;;2.23;1.50;;;17.40;34.20;;;;;;8391202;28;20098;-46
2021/05/08 04:35:44;;;;;;;1.30;1.20;;;17.40;34.20;;;;;;8397131;28;20051;-47
2021/05/08 04:39:44;;;;;;;1.23;1.10;;;17.40;34.20;;;;;;8392611;28;20088;-46
2021/05/08 04:43:45;;;;;;;2.47;1.30;;;17.40;34.30;;;;;;8390705;28;20028;-47
2021/05/08 04:47:45;;;;;;;0.97;0.97;;;17.40;34.20;;;;;;8392435;28;20025;-46
2021/05/08 04:51:46;;;;;;;1.60;1.00;;;17.40;34.20;;;;;;8396807;28;20345;-48
2021/05/08 04:55:47;;;;;;;1.30;1.00;;;17.40;34.20;;;;;;8390255;28;20024;-45
2021/05/08 04:59:47;;;;;;;2.17;1.23;;;17.40;34.30;;;;;;8392120;28;20072;-47
2021/05/08 05:03:48;;;;;;;1.87;1.00;;;17.40;34.30;;;;;;8391902;28;20058;-46
2021/05/08 05:07:49;;;;;;;2.53;1.70;;;17.40;34.20;;;;;;8394704;28;20037;-45
2021/05/08 05:11:50;;;;;;;1.80;1.40;;;17.30;34.20;;;;;;8379392;28;20071;-45
2021/05/08 09:58:57;;;;;;;2.60;1.83;;;18.20;34.40;;;;;;8370624;28;20038;-50
2021/05/08 10:03:24;;;;;;;2.97;1.85;;;18.30;34.40;;;;;;8389853;28;20139;-47
2021/05/08 10:07:28;;;;;;;2.28;1.83;;;18.30;34.40;;;;;;8387550;28;20056;-48
2021/05/08 10:11:28;;;;;;;2.40;1.73;;;18.40;34.60;;;;;;8389946;28;20021;-45
2021/05/08 10:15:29;;;;;;;2.90;1.80;;;18.40;34.50;;;;;;8390522;28;20028;-46
2021/05/08 10:19:31;;;;;;;3.27;2.80;;;18.50;34.50;;;;;;8393868;28;20377;-49
2021/05/08 10:23:33;;;;;;;2.30;1.70;;;18.50;34.50;;;;;;8390456;28;20041;-50
2021/05/08 10:27:34;;;;;;;2.63;1.90;;;18.60;34.50;;;;;;8390861;28;20115;-48
2021/05/08 10:31:35;;;;;;;2.73;1.93;;;18.60;34.50;;;;;;8388419;28;20025;-49
2021/05/08 10:35:42;;;;;;;2.58;1.70;;;18.60;34.40;;;;;;8394840;28;20366;-51
2021/05/08 10:40:01;;;;;;;2.88;1.80;;;18.60;34.40;;;;;;8393729;28;20048;-51
2021/05/08 10:44:02;;;;;;;3.00;1.90;;;18.70;34.40;;;;;;8388427;28;20105;-47
2021/05/08 10:48:06;;;;;;;2.70;1.97;;;18.70;34.30;;;;;;8390454;28;20092;-47
2021/05/08 10:52:07;;;;;;;3.20;2.00;;;18.70;34.40;;;;;;8392700;28;20032;-49
2021/05/08 10:56:31;;;;;;;2.57;1.90;;;18.70;34.40;;;;;;8399223;28;20380;-48
2021/05/08 11:00:47;;;;;;;2.25;1.70;;;18.70;34.30;;;;;;8399153;28;20049;-49
2021/05/08 11:05:26;;;;;;;2.45;1.80;;;18.80;34.40;;;;;;8394818;28;20036;-50
2021/05/08 11:09:31;;;;;;;2.47;1.77;;;18.80;34.30;;;;;;8395892;28;20036;-46
2021/05/08 11:13:46;;;;;;;2.70;2.05;;;18.80;34.30;;;;;;8393973;28;20082;-49
2021/05/08 11:18:02;;;;;;;2.90;1.98;;;18.80;34.20;;;;;;8394993;28;20043;-50
2021/05/08 11:22:07;;;;;;;3.03;2.10;;;18.90;34.20;;;;;;8399556;28;20568;-47
2021/05/08 11:26:23;;;;;;;2.50;1.70;;;18.90;34.20;;;;;;8393578;28;20481;-48
2021/05/08 11:30:23;;;;;;;2.13;1.75;;;18.90;34.10;;;;;;8394924;28;20036;-47
2021/05/08 11:34:27;;;;;;;3.47;1.90;;;18.90;34.10;;;;;;8393024;28;20492;-48
2021/05/08 11:38:28;;;;;;;3.53;2.17;;;19.00;34.10;;;;;;8394865;28;22644;-50
2021/05/08 11:42:31;;;;;;;2.90;2.03;;;19.00;34.10;;;;;;8399193;28;20190;-48
2021/05/08 11:46:33;;;;;;;2.55;1.73;;;19.00;34.10;;;;;;8392851;28;20558;-50
2021/05/08 11:50:34;;;;;;;3.38;2.03;;;19.00;34.10;;;;;;8394486;28;20041;-49
2021/05/08 11:54:42;;;;;;;2.67;1.80;;;19.00;34.00;;;;;;8394231;28;20086;-46
2021/05/08 11:58:50;;;;;;;3.67;2.10;;;19.00;34.10;;;;;;8396918;28;20032;-49
2021/05/08 12:03:09;;;;;;;1.67;1.50;;;19.10;34.10;;;;;;8382689;28;20057;-46
2021/05/08 12:07:09;;;;;;;2.28;1.67;;;19.10;34.00;;;;;;8384178;28;20036;-48
2021/05/08 12:11:16;;;;;;;2.47;1.70;;;19.10;34.00;;;;;;8392236;28;20094;-46
2021/05/08 12:15:28;;;;;;;2.55;1.77;;;19.10;34.00;;;;;;8393650;28;20032;-50
2021/05/08 12:19:29;;;;;;;2.83;2.03;;;19.10;34.00;;;;;;8396277;28;20044;-49
2021/05/08 12:23:31;;;;;;;2.30;1.53;;;19.20;34.00;;;;;;8393369;28;20043;-48
2021/05/08 12:27:31;;;;;;;3.20;1.85;;;19.20;34.00;;;;;;8393640;28;20036;-50
2021/05/08 12:31:34;;;;;;;2.30;1.80;;;19.20;34.00;;;;;;8391572;28;20505;-49
2021/05/08 12:35:34;;;;;;;1.85;1.70;;;19.20;34.00;;;;;;8393056;28;20047;-51
2021/05/08 12:39:43;;;;;;;2.13;1.67;;;19.20;34.00;;;;;;8397405;28;20436;-49
2021/05/08 12:43:49;;;;;;;3.08;1.92;;;19.20;34.00;;;;;;8390873;28;20037;-47
2021/05/08 12:47:49;;;;;;;2.58;1.85;;;19.30;34.00;;;;;;8392599;28;20040;-49
2021/05/08 12:51:51;;;;;;;1.97;1.47;;;19.20;33.90;;;;;;8392528;28;20055;-49
2021/05/08 12:56:01;;;;;;;;;;;19.30;34.00;;;;;;8395454;28;20052;-49
2021/05/08 13:00:11;;;;;;;3.42;1.90;;;19.30;34.00;;;;;;8391874;28;19923;-48
2021/05/08 13:04:15;;;;;;;1.90;1.52;;;19.30;34.00;;;;;;8390825;28;20032;-48
2021/05/08 13:08:16;;;;;;;2.80;1.70;;;19.30;34.00;;;;;;8390576;28;20189;-48
2021/05/08 13:12:22;;;;;;;3.00;1.80;;;19.30;34.60;;;;;;8392083;28;20086;-47
2021/05/08 13:16:22;;;;;;;2.38;1.75;;;19.40;34.00;;;;;;8394296;28;20033;-49
2021/05/08 13:20:28;;;;;;;3.23;1.90;;;19.30;34.00;;;;;;8391522;28;20131;-46
2021/05/08 13:24:31;;;;;;;2.58;1.90;;;19.40;33.90;;;;;;8391498;28;20481;-48
2021/05/08 13:28:31;;;;;;;2.08;1.88;;;19.40;33.90;;;;;;8389914;28;20032;-47
2021/05/08 13:32:32;;;;;;;2.73;2.10;;;19.40;33.90;;;;;;8392501;28;20078;-49
2021/05/08 13:36:33;;;;;;;2.37;1.93;;;19.40;33.90;;;;;;8394961;28;20044;-49
2021/05/08 13:40:33;;;;;;;2.57;1.73;;;19.40;33.90;;;;;;8389227;28;20044;-47
2021/05/08 13:44:34;;;;;;;1.73;1.43;;;19.40;33.90;;;;;;8391269;28;20162;-47
2021/05/08 13:48:34;;;;;;;1.90;1.70;;;19.50;33.90;;;;;;8391061;28;20021;-47
2021/05/08 13:52:35;;;;;;;2.43;1.90;;;19.50;33.90;;;;;;8394151;28;20393;-49
2021/05/08 13:56:35;;;;;;;2.77;1.90;;;19.50;33.90;;;;;;8390931;28;20098;-49
2021/05/08 14:00:36;;;;;;;1.70;1.60;;;19.50;33.80;;;;;;8390619;28;20072;-48
2021/05/08 14:04:37;;;;;;;3.03;1.93;;;19.50;33.80;;;;;;8389390;28;20051;-50
2021/05/08 14:08:38;;;;;;;2.43;2.07;;;19.50;33.80;;;;;;8395198;28;20056;-50
2021/05/08 14:12:38;;;;;;;2.40;1.88;;;19.50;33.80;;;;;;8390899;28;20488;-47
2021/05/08 14:16:39;;;;;;;2.23;1.67;;;19.50;33.80;;;;;;8389122;28;20048;-50
2021/05/08 14:20:39;;;;;;;3.20;2.13;;;19.60;33.80;;;;;;8391126;28;20049;-47
2021/05/08 14:24:40;;;;;;;2.43;1.83;;;19.60;33.90;;;;;;8390677;28;20421;-46
2021/05/08 14:28:41;;;;;;;2.07;1.67;;;19.60;33.80;;;;;;8398948;28;20055;-46
2021/05/08 14:32:42;;;;;;;1.63;1.52;;;19.60;33.80;;;;;;8397141;28;20056;-49
2021/05/08 14:36:43;;;;;;;3.10;2.10;;;19.50;33.80;;;;;;8396858;28;20135;-47
2021/05/08 14:40:43;;;;;;;2.37;1.63;;;19.60;33.80;;;;;;8394899;28;20500;-49
2021/05/08 14:44:44;;;;;;;2.43;1.87;;;19.60;33.80;;;;;;8401055;28;20037;-47
2021/05/08 14:48:44;;;;;;;1.93;1.63;;;19.60;33.80;;;;;;8396226;28;20519;-49
2021/05/08 14:52:45;;;;;;;2.23;1.70;;;19.60;33.80;;;;;;8394453;28;20029;-47
2021/05/08 14:56:46;;;;;;;2.67;1.80;;;19.50;33.70;;;;;;8396374;28;20060;-49
2021/05/08 15:00:46;;;;;;;2.57;1.77;;;19.60;33.80;;;;;;8400145;28;20045;-48
2021/05/08 15:04:47;;;;;;;1.97;1.77;;;19.60;33.70;;;;;;8393940;28;20040;-46
2021/05/08 15:08:47;;;;;;;2.33;1.80;;;19.60;33.70;;;;;;8395375;28;20056;-47
2021/05/08 15:12:48;;;;;;;2.43;1.93;;;19.60;33.80;;;;;;8395519;28;20036;-51
2021/05/08 15:16:48;;;;;;;2.73;2.00;;;19.60;33.80;;;;;;8393284;28;20108;-51
2021/05/08 15:20:49;;;;;;;2.67;1.90;;;19.60;33.80;;;;;;8399851;28;20048;-49
2021/05/08 15:24:50;;;;;;;3.22;2.05;;;19.60;33.80;;;;;;8395398;28;20059;-48
2021/05/08 15:28:51;;;;;;;2.70;2.00;;;19.60;33.80;;;;;;8393426;28;20068;-46
2021/05/08 15:32:51;;;;;;;2.23;1.73;;;19.60;33.70;;;;;;8395288;28;20324;-48
2021/05/08 15:36:52;;;;;;;4.00;2.10;;;19.60;33.80;;;;;;8399619;28;20017;-48
2021/05/08 15:40:54;;;;;;;2.50;1.90;;;19.60;33.70;;;;;;8392874;28;20044;-48
2021/05/08 15:44:55;;;;;;;3.55;2.25;;;19.60;33.70;;;;;;8394841;28;20033;-50
2021/05/08 15:48:56;;;;;;;2.60;1.90;;;19.70;34.10;;;;;;8394401;28;20467;-47
2021/05/08 15:52:56;;;;;;;2.38;1.60;;;19.70;33.80;;;;;;8393883;28;20092;-50
2021/05/08 15:56:57;;;;;;;2.63;2.00;;;19.60;33.70;;;;;;8397747;28;20064;-51
2021/05/08 16:00:58;;;;;;;2.00;1.70;;;19.70;33.80;;;;;;8394532;28;20135;-46
2021/05/08 16:04:59;;;;;;;;;;;19.70;33.80;;;;;;8392771;28;20043;-48
2021/05/08 16:08:59;;;;;;;2.73;1.87;;;19.70;33.80;;;;;;8394110;28;20364;-49
2021/05/08 16:13:00;;;;;;;3.07;2.03;;;19.70;33.90;;;;;;8398597;28;20029;-48
2021/05/08 16:17:00;;;;;;;3.10;2.10;;;19.70;33.80;;;;;;8391998;28;20392;-49
2021/05/08 16:21:01;;;;;;;2.37;2.00;;;19.70;33.90;;;;;;8393592;28;20052;-48
2021/05/08 16:25:04;;;;;;;3.23;2.20;;;19.70;33.80;;;;;;8393780;28;20570;-47
2021/05/08 16:29:06;;;;;;;2.40;1.63;;;19.70;33.80;;;;;;8396418;28;20400;-47
2021/05/08 16:33:06;;;;;;;;;;;19.70;33.80;;;;;;8393590;28;20036;-48
2021/05/08 16:37:07;;;;;;;2.20;1.80;;;19.70;33.80;;;;;;8393242;28;20073;-47
2021/05/08 16:41:07;;;;;;;2.13;1.93;;;19.70;33.90;;;;;;8391003;28;20501;-47
2021/05/08 16:45:09;;;;;;;2.40;1.80;;;19.70;33.80;;;;;;8392755;28;20025;-49
2021/05/08 16:49:09;;;;;;;2.60;1.70;;;19.70;33.90;;;;;;8396684;28;20507;-48
2021/05/08 16:53:10;;;;;;;3.70;2.00;;;19.70;33.90;;;;;;8391120;28;20225;-48
2021/05/08 16:57:10;;;;;;;2.67;2.00;;;19.70;34.00;;;;;;8392687;28;20458;-47
2021/05/08 17:01:11;;;;;;;2.37;1.70;;;19.70;33.80;;;;;;8391790;28;20044;-49
2021/05/08 17:05:12;;;;;;;1.70;1.50;;;19.70;33.90;;;;;;8395133;28;20031;-47
2021/05/08 17:09:12;;;;;;;2.87;1.70;;;19.70;33.90;;;;;;8392380;28;20062;-49
2021/05/08 17:13:13;;;;;;;2.50;1.90;;;19.70;33.90;;;;;;8391986;28;20056;-48
2021/05/08 17:17:14;;;;;;;3.10;2.00;;;19.70;34.00;;;;;;8390671;28;20377;-47
2021/05/08 17:21:15;;;;;;;1.73;1.58;;;19.70;34.10;;;;;;8396377;28;20044;-47
2021/05/08 17:25:18;;;;;;;3.17;1.80;;;19.70;34.10;;;;;;8391820;28;20519;-46
2021/05/08 17:29:18;;;;;;;1.77;1.48;;;19.70;34.20;;;;;;8389709;28;20393;-50
2021/05/08 17:33:19;;;;;;;2.17;1.67;;;19.70;34.10;;;;;;8391526;28;20043;-50
2021/05/08 17:37:21;;;;;;;1.60;1.50;;;19.70;34.20;;;;;;8391402;28;20029;-48
2021/05/08 17:41:21;;;;;;;3.17;1.90;;;19.70;34.30;;;;;;8394323;28;20036;-48
2021/05/08 17:45:22;;;;;;;2.07;1.87;;;19.70;34.20;;;;;;8391211;28;20493;-48
2021/05/08 17:49:22;;;;;;;4.13;2.20;;;19.70;34.30;;;;;;8389122;28;20041;-47
2021/05/08 17:53:23;;;;;;;2.90;1.80;;;19.70;34.30;;;;;;8366756;28;20055;-48
2021/05/08 17:57:24;;;;;;;1.87;1.70;;;19.70;34.40;;;;;;8395489;28;20086;-48
2021/05/08 18:01:24;;;;;;;2.77;1.70;;;19.70;34.50;;;;;;8388124;28;20475;-49
2021/05/08 18:05:25;;;;;;;6.70;2.20;;;19.70;34.60;;;;;;8390810;28;20036;-47
2021/05/08 18:09:25;;;;;;;2.50;1.73;;;19.70;34.50;;;;;;8390880;28;20040;-47
2021/05/08 18:13:26;;;;;;;2.27;1.67;;;19.70;34.50;;;;;;8389166;28;20036;-49
2021/05/08 18:17:26;;;;;;;2.93;2.10;;;19.70;35.10;;;;;;8395409;28;20044;-48
2021/05/08 18:21:27;;;;;;;3.50;2.60;;;19.70;35.10;;;;;;8390711;28;20519;-49
2021/05/08 18:25:28;;;;;;;3.47;2.40;;;19.70;35.20;;;;;;8388540;28;20025;-51
2021/05/08 18:29:28;;;;;;;3.27;2.07;;;19.70;35.40;;;;;;8390347;27;20393;-48
2021/05/08 18:33:29;;;;;;;3.20;2.27;;;19.70;35.10;;;;;;8394798;28;20041;-49
2021/05/08 18:37:30;;;;;;;2.70;2.00;;;19.70;35.00;;;;;;8388806;28;20036;-47
2021/05/08 18:41:30;;;;;;;3.13;2.47;;;19.70;35.00;;;;;;8390504;28;20048;-50
2021/05/08 18:45:31;;;;;;;2.17;1.80;;;19.70;35.00;;;;;;8390225;28;20028;-48
2021/05/08 18:49:31;;;;;;;2.40;1.90;;;19.70;34.90;;;;;;8393157;28;20052;-48
2021/05/08 18:53:32;;;;;;;3.13;2.33;;;19.70;34.90;;;;;;8390074;28;20044;-49
2021/05/08 18:57:33;;;;;;;3.17;2.20;;;19.70;35.00;;;;;;8390063;28;20078;-47
2021/05/08 19:01:33;;;;;;;2.90;2.03;;;19.70;34.80;;;;;;8386629;28;20048;-46
2021/05/08 19:05:34;;;;;;;2.43;1.60;;;19.70;34.60;;;;;;8366937;28;20295;-47
2021/05/08 19:09:34;;;;;;;2.13;1.80;;;19.70;34.80;;;;;;8394154;28;20033;-47
2021/05/08 19:13:35;;;;;;;3.50;2.03;;;19.70;34.40;;;;;;8391848;28;20453;-47
2021/05/08 19:17:36;;;;;;;2.30;2.07;;;19.70;34.40;;;;;;8395930;28;20043;-47
2021/05/08 19:21:37;;;;;;;;;;;19.70;34.30;;;;;;8395875;28;20400;-47
2021/05/08 19:25:37;;;;;;;3.23;2.20;;;19.70;34.30;;;;;;8398391;28;19915;-48
2021/05/08 19:29:39;;;;;;;2.83;2.03;;;19.70;34.30;;;;;;8395091;28;20024;-47
2021/05/08 19:33:40;;;;;;;2.47;1.83;;;19.70;34.30;;;;;;8394974;28;20048;-51
2021/05/08 19:37:41;;;;;;;4.07;2.40;;;19.60;34.30;;;;;;8393321;28;20123;-51
2021/05/08 19:41:41;;;;;;;3.50;2.35;;;19.70;34.20;;;;;;8399559;28;20044;-49
2021/05/08 19:45:42;;;;;;;2.50;1.80;;;19.70;34.30;;;;;;8394935;28;20082;-46
2021/05/08 19:49:42;;;;;;;2.67;2.13;;;19.60;34.30;;;;;;8392959;27;20072;-48
2021/05/08 19:53:43;;;;;;;2.73;1.80;;;19.60;34.30;;;;;;8394610;28;20044;-46
2021/05/08 19:57:44;;;;;;;2.57;1.73;;;19.70;34.30;;;;;;8394634;28;20038;-49
2021/05/08 20:01:44;;;;;;;2.58;1.80;;;19.70;34.30;;;;;;8397179;28;20029;-48
2021/05/08 20:05:45;;;;;;;2.80;1.87;;;19.60;34.30;;;;;;8394075;28;20055;-47
2021/05/08 20:09:46;;;;;;;3.17;1.77;;;19.60;34.30;;;;;;8374471;28;20052;-47
2021/05/08 20:13:46;;;;;;;3.07;2.07;;;19.60;34.80;;;;;;8359120;28;20044;-47
2021/05/08 20:17:47;;;;;;;2.57;1.87;;;19.60;34.30;;;;;;8377463;28;20090;-48
2021/05/08 20:21:47;;;;;;;3.13;2.13;;;19.70;34.30;;;;;;8393616;28;20501;-47
2021/05/08 20:25:48;;;;;;;2.73;2.00;;;19.60;34.30;;;;;;8390894;28;20128;-49
2021/05/08 20:29:50;;;;;;;2.40;1.83;;;19.60;34.30;;;;;;8392250;28;20044;-49
2021/05/08 20:33:50;;;;;;;2.38;1.77;;;19.60;34.30;;;;;;8394209;28;20033;-48
2021/05/08 20:37:51;;;;;;;1.87;1.40;;;19.60;34.30;;;;;;8396079;28;20032;-47
2021/05/08 20:41:51;;;;;;;3.83;1.93;;;19.60;34.30;;;;;;8393254;28;20050;-48
2021/05/08 20:45:52;;;;;;;3.93;2.10;;;19.70;34.40;;;;;;8392775;28;20032;-48
2021/05/08 20:49:53;;;;;;;2.10;1.67;;;19.60;34.30;;;;;;8390578;28;20040;-47
2021/05/08 20:53:53;;;;;;;3.23;1.90;;;19.60;34.30;;;;;;8397332;28;20120;-48
2021/05/08 20:57:56;;;;;;;2.73;1.93;;;19.60;34.30;;;;;;8391884;28;20040;-49
2021/05/08 21:01:58;;;;;;;3.55;2.03;;;19.60;34.40;;;;;;8390545;28;20131;-48
2021/05/08 21:05:59;;;;;;;2.25;1.70;;;19.60;34.40;;;;;;8392312;28;20572;-47
2021/05/08 21:10:00;;;;;;;2.07;1.87;;;19.60;34.40;;;;;;8396457;28;20037;-48
2021/05/08 21:14:00;;;;;;;3.57;2.20;;;19.60;34.40;;;;;;8390495;28;20507;-48
2021/05/08 21:18:01;;;;;;;2.10;1.70;;;19.60;34.40;;;;;;8391749;28;20480;-47
2021/05/08 21:22:01;;;;;;;2.57;1.93;;;19.60;34.40;;;;;;8391463;28;20135;-47
2021/05/08 21:26:03;;;;;;;2.60;2.00;;;19.60;34.40;;;;;;8389946;28;20377;-47
2021/05/08 21:30:05;;;;;;;2.35;1.88;;;19.60;34.40;;;;;;8395871;28;20048;-49
2021/05/08 21:34:06;;;;;;;3.47;1.95;;;19.60;34.40;;;;;;8391457;28;20424;-47
2021/05/08 21:38:07;;;;;;;2.10;1.90;;;19.60;34.40;;;;;;8383684;28;20025;-47
2021/05/08 21:42:08;;;;;;;4.15;1.92;;;19.50;34.40;;;;;;8372631;28;20044;-46
2021/05/08 21:46:08;;;;;;;2.27;1.80;;;19.60;34.40;;;;;;8395780;28;20036;-46
2021/05/08 21:50:09;;;;;;;2.40;1.80;;;19.50;34.40;;;;;;8359888;28;20029;-47
2021/05/08 21:54:10;;;;;;;3.00;1.88;;;19.60;34.50;;;;;;8378220;28;20032;-48
2021/05/08 21:58:10;;;;;;;3.87;2.10;;;19.60;34.50;;;;;;8391380;28;20033;-48
2021/05/08 22:02:11;;;;;;;2.53;2.07;;;19.60;34.60;;;;;;8390687;28;20044;-49
2021/05/08 22:06:11;;;;;;;3.27;1.80;;;19.50;34.50;;;;;;8394051;28;20028;-47
2021/05/08 22:10:12;;;;;;;2.70;1.90;;;19.60;34.60;;;;;;8390950;28;20082;-46
2021/05/08 22:14:13;;;;;;;3.00;2.13;;;19.50;34.60;;;;;;8389119;28;20060;-47
2021/05/08 22:18:15;;;;;;;2.73;2.13;;;19.50;34.60;;;;;;8390931;28;20033;-47
2021/05/08 22:22:15;;;;;;;2.90;1.85;;;19.50;34.60;;;;;;8395038;28;20045;-49
2021/05/08 22:26:16;;;;;;;3.03;2.13;;;19.50;34.60;;;;;;8388777;28;20469;-48
2021/05/08 22:30:17;;;;;;;3.90;1.70;;;19.50;34.60;;;;;;8390665;28;20131;-48
2021/05/08 22:34:18;;;;;;;2.95;2.15;;;19.50;34.60;;;;;;8390335;28;20043;-49
2021/05/08 22:38:18;;;;;;;3.70;2.20;;;19.50;34.80;;;;;;8393414;28;20560;-48
2021/05/08 22:42:19;;;;;;;2.90;2.07;;;19.50;34.70;;;;;;8360190;28;20048;-47
2021/05/08 22:46:20;;;;;;;2.23;1.57;;;19.50;34.70;;;;;;8378447;28;20067;-47
2021/05/08 22:50:21;;;;;;;;;;;19.50;34.70;;;;;;8395652;28;20094;-47
2021/05/08 22:54:21;;;;;;;2.43;1.90;;;19.40;34.60;;;;;;8395970;28;19915;-49
2021/05/08 22:58:22;;;;;;;2.43;1.90;;;19.50;34.70;;;;;;8399271;28;20086;-45
2021/05/08 23:02:23;;;;;;;3.23;2.20;;;19.40;34.70;;;;;;8395985;28;20110;-48
2021/05/08 23:06:24;;;;;;;2.43;1.80;;;19.40;34.70;;;;;;8396398;28;20044;-48
2021/05/08 23:10:24;;;;;;;2.42;2.08;;;19.40;34.70;;;;;;8394014;28;20405;-49
2021/05/08 23:14:25;;;;;;;3.13;1.73;;;19.40;34.70;;;;;;8400097;28;20029;-46
2021/05/08 23:18:25;;;;;;;2.07;1.87;;;19.40;34.70;;;;;;8396063;28;20119;-45
2021/05/08 23:22:26;;;;;;;2.03;1.70;;;19.40;34.70;;;;;;8393560;28;20433;-48
2021/05/08 23:26:26;;;;;;;2.93;1.90;;;19.40;35.30;;;;;;8395315;28;20044;-48
2021/05/08 23:30:27;;;;;;;2.87;2.13;;;19.40;34.70;;;;;;8399943;28;20070;-48
2021/05/08 23:34:28;;;;;;;2.90;2.10;;;19.40;34.70;;;;;;8393567;28;20123;-47
2021/05/08 23:38:28;;;;;;;2.13;1.63;;;19.40;34.70;;;;;;8394590;28;20550;-48
2021/05/08 23:42:29;;;;;;;4.57;3.00;;;19.40;34.70;;;;;;8394572;28;20378;-49
2021/05/08 23:46:31;;;;;;;2.57;1.77;;;19.40;34.70;;;;;;8393076;28;20033;-47
2021/05/08 23:50:32;;;;;;;3.08;1.80;;;19.40;34.70;;;;;;8399081;28;20511;-46
2021/05/08 23:54:32;;;;;;;2.87;1.80;;;19.40;34.80;;;;;;8394772;28;20033;-47
2021/05/08 23:58:33;;;;;;;2.73;1.93;;;19.40;34.80;;;;;;8391571;28;20033;-47
